Time;durP1;ratioP1;P1;durP2;ratioP2;P2;SDS_P1;SDS_P2;PMS_P1;PMS_P2;Temp;Humidity;BMP_temperature;BMP_pressure;BME280_temperature;BME280_humidity;BME280_pressure;Samples;Min_cycle;Max_cycle;Signal;HPM_P1;HPM_P2
2023/09/20 00:00:36;;;;;;;0.80;0.40;;;;;;;16.05;63.31;100483.16;5009214;28;20446;-66
2023/09/20 00:03:16;;;;;;;0.80;0.40;;;;;;;16.22;62.25;100479.56;5001081;28;20445;-66
2023/09/20 00:05:53;;;;;;;0.90;0.60;;;;;;;16.09;63.11;100478.00;4980654;28;20472;-66
2023/09/20 00:12:33;;;;;;;0.90;0.63;;;;;;;15.95;63.90;100472.06;4991848;28;20431;-66
2023/09/20 00:15:10;;;;;;;0.90;0.67;;;;;;;15.89;63.93;100478.50;4994586;28;21082;-66
2023/09/20 00:17:45;;;;;;;0.80;0.50;;;;;;;15.91;63.87;100481.81;4997531;28;20511;-67
2023/09/20 00:20:21;;;;;;;0.80;0.40;;;;;;;15.87;63.84;100483.38;4991993;28;20441;-67
2023/09/20 00:22:57;;;;;;;0.80;0.40;;;;;;;15.97;63.43;100472.66;4992737;28;20454;-66
2023/09/20 00:25:34;;;;;;;0.80;0.40;;;;;;;15.91;63.74;100470.91;4991820;28;20844;-66
2023/09/20 00:28:25;;;;;;;0.80;0.40;;;;;;;15.96;63.77;100479.19;4989984;28;20428;-69
2023/09/20 00:31:00;;;;;;;0.80;0.40;;;;;;;15.94;63.69;100481.31;4984000;28;20535;-67
2023/09/20 00:33:34;;;;;;;0.80;0.40;;;;;;;15.88;63.91;100476.84;4994236;28;20867;-67
2023/09/20 00:36:21;;;;;;;0.80;0.40;;;;;;;16.04;63.35;100472.47;4995415;28;20461;-66
2023/09/20 00:38:57;;;;;;;0.80;0.40;;;;;;;15.84;64.05;100475.69;4986912;28;20446;-67
2023/09/20 00:41:31;;;;;;;0.80;0.50;;;;;;;15.88;64.05;100485.03;4986592;28;20836;-66
2023/09/20 00:44:17;;;;;;;0.80;0.40;;;;;;;15.86;64.13;100484.47;4988656;28;20997;-66
2023/09/20 00:46:53;;;;;;;0.80;0.50;;;;;;;15.89;64.20;100478.50;5003434;28;20461;-67
2023/09/20 00:49:29;;;;;;;0.80;0.40;;;;;;;15.84;64.10;100475.69;4993662;28;20507;-67
2023/09/20 00:52:08;;;;;;;0.80;0.50;;;;;;;15.87;64.15;100472.47;4986156;28;20941;-65
2023/09/20 00:54:43;;;;;;;0.80;0.40;;;;;;;15.92;64.08;100478.03;4979634;28;20451;-68
2023/09/20 00:57:23;;;;;;;0.80;0.50;;;;;;;15.77;64.57;100469.56;4999871;28;20437;-68
2023/09/20 01:00:07;;;;;;;0.80;0.40;;;;;;;15.75;65.02;100465.41;4992546;28;20407;-65
2023/09/20 01:02:45;;;;;;;2.20;2.00;;;;;;;15.72;64.91;100469.47;4991755;28;20776;-66
2023/09/20 01:05:25;;;;;;;0.80;0.50;;;;;;;15.71;64.92;100473.28;4986304;28;20498;-67
2023/09/20 01:08:07;;;;;;;0.80;0.40;;;;;;;15.70;65.61;100478.97;5002278;28;20544;-67
2023/09/20 01:10:45;;;;;;;0.80;0.40;;;;;;;15.78;64.90;100473.94;4996611;28;20457;-66
2023/09/20 01:13:20;;;;;;;0.80;0.40;;;;;;;15.74;65.20;100485.59;4992231;28;20454;-66
2023/09/20 01:15:56;;;;;;;0.80;0.40;;;;;;;15.69;65.26;100483.59;4987562;28;20448;-66
2023/09/20 01:18:32;;;;;;;1.10;1.00;;;;;;;15.85;64.41;100488.25;4994540;28;20812;-66
2023/09/20 01:21:11;;;;;;;0.90;0.50;;;;;;;15.66;65.34;100484.09;4997828;28;20472;-67
2023/09/20 01:23:49;;;;;;;0.80;0.40;;;;;;;15.69;65.34;100489.03;4994843;28;20507;-67
2023/09/20 01:26:27;;;;;;;0.80;0.40;;;;;;;15.68;65.54;100492.03;5001206;28;20451;-66
2023/09/20 01:29:02;;;;;;;0.80;0.40;;;;;;;15.80;65.41;100490.88;5007792;28;20427;-67
2023/09/20 01:31:37;;;;;;;0.80;0.40;;;;;;;15.66;65.67;100489.53;5008512;28;20466;-66
2023/09/20 01:34:30;;;;;;;0.80;0.40;;;;;;;15.64;65.86;100491.69;4988296;28;20990;-67
2023/09/20 01:37:15;;;;;;;0.80;0.40;;;;;;;15.60;66.07;100480.44;4985770;28;20436;-66
2023/09/20 01:39:49;;;;;;;0.80;0.50;;;;;;;15.61;66.51;100478.53;4992748;28;20414;-66
2023/09/20 01:42:26;;;;;;;0.80;0.50;;;;;;;15.83;65.45;100484.94;4991541;28;20446;-65
2023/09/20 01:45:06;;;;;;;0.90;0.67;;;;;;;15.70;66.11;100477.06;5007143;28;20439;-66
2023/09/20 01:47:48;;;;;;;0.80;0.40;;;;;;;15.62;66.37;100474.75;5006130;28;20420;-67
2023/09/20 01:50:24;;;;;;;1.20;0.83;;;;;;;15.62;66.52;100472.03;5013053;28;20459;-67
2023/09/20 01:53:00;;;;;;;1.10;0.50;;;;;;;15.64;66.83;100472.59;4991567;28;20411;-65
2023/09/20 01:55:43;;;;;;;0.80;0.40;;;;;;;15.49;67.47;100469.59;4998259;28;20503;-66
2023/09/20 01:58:20;;;;;;;0.80;0.40;;;;;;;15.50;67.45;100471.22;4980547;28;20880;-67
2023/09/20 02:00:57;;;;;;;0.80;0.40;;;;;;;15.49;67.69;100469.59;4977561;28;20442;-67
2023/09/20 02:03:40;;;;;;;0.80;0.40;;;;;;;15.46;67.89;100467.31;4992168;28;20946;-68
2023/09/20 02:06:17;;;;;;;0.80;0.40;;;;;;;15.49;67.91;100472.31;4998493;28;20411;-66
2023/09/20 02:08:53;;;;;;;0.80;0.50;;;;;;;15.41;68.21;100480.84;4999739;28;20442;-67
2023/09/20 02:11:29;;;;;;;0.80;0.40;;;;;;;15.53;67.93;100478.94;4997600;28;20855;-67
2023/09/20 02:14:04;;;;;;;0.80;0.40;;;;;;;15.69;67.37;100480.88;4991308;28;20415;-67
2023/09/20 02:16:45;;;;;;;0.80;0.40;;;;;;;15.75;67.05;100488.06;5002713;28;20548;-66
2023/09/20 02:19:23;;;;;;;0.80;0.40;;;;;;;15.65;67.59;100485.16;5007113;28;20471;-66
2023/09/20 02:21:56;;;;;;;0.80;0.50;;;;;;;15.76;67.08;100483.44;5008266;28;20453;-66
2023/09/20 02:24:31;;;;;;;1.63;0.70;;;;;;;15.71;67.37;100478.72;4993786;28;20443;-67
2023/09/20 02:27:13;;;;;;;0.80;0.40;;;;;;;15.81;67.01;100476.19;4999664;28;20755;-67
2023/09/20 02:29:46;;;;;;;0.90;0.60;;;;;;;15.91;66.83;100480.97;4998721;28;20442;-66
2023/09/20 02:32:30;;;;;;;0.80;0.40;;;;;;;15.92;66.75;100478.03;4989643;28;20411;-67
2023/09/20 02:35:06;;;;;;;0.80;0.40;;;;;;;15.84;67.27;100475.69;4992566;28;20775;-67
2023/09/20 02:37:43;;;;;;;0.80;0.40;;;;;;;15.98;66.52;100471.56;4999748;28;20447;-67
2023/09/20 02:40:19;;;;;;;0.80;0.40;;;;;;;15.98;66.60;100466.09;4994264;28;20438;-67
2023/09/20 02:42:54;;;;;;;0.80;0.40;;;;;;;16.09;66.44;100461.63;4998196;28;20905;-67
2023/09/20 02:45:29;;;;;;;0.90;0.80;;;;;;;16.08;66.27;100459.97;5010030;28;20452;-67
2023/09/20 02:48:06;;;;;;;0.80;0.40;;;;;;;16.15;66.16;100459.81;4995423;28;20445;-66
2023/09/20 02:50:47;;;;;;;0.80;0.40;;;;;;;16.17;66.33;100455.75;4994458;28;20540;-65
2023/09/20 02:53:25;;;;;;;0.90;0.70;;;;;;;16.06;66.70;100462.97;4984100;28;20446;-67
2023/09/20 02:55:59;;;;;;;0.80;0.40;;;;;;;16.00;66.95;100466.69;4982671;28;20480;-66
2023/09/20 02:58:36;;;;;;;0.80;0.40;;;;;;;16.03;67.09;100468.91;5001836;28;20528;-66
2023/09/20 03:01:20;;;;;;;0.80;0.40;;;;;;;16.07;67.36;100464.59;4996076;28;20412;-67
2023/09/20 03:03:56;;;;;;;0.80;0.40;;;;;;;16.10;67.15;100457.84;4995749;28;20918;-66
2023/09/20 03:06:35;;;;;;;1.30;0.60;;;;;;;16.06;67.27;100446.59;5000315;28;20459;-65
2023/09/20 03:09:08;;;;;;;0.80;0.40;;;;;;;16.15;66.91;100448.91;4993023;28;20468;-65
2023/09/20 03:11:44;;;;;;;0.80;0.40;;;;;;;16.04;67.33;100448.72;4985679;28;20964;-66
2023/09/20 03:14:18;;;;;;;1.00;0.50;;;;;;;16.03;67.80;100452.53;4984430;28;21042;-67
2023/09/20 03:16:54;;;;;;;0.80;0.40;;;;;;;15.95;68.07;100454.84;4995414;28;20516;-67
2023/09/20 03:19:29;;;;;;;0.80;0.40;;;;;;;15.99;67.97;100454.09;5013662;28;20435;-66
2023/09/20 03:22:06;;;;;;;0.83;0.50;;;;;;;15.95;68.44;100458.41;4986237;28;20438;-65
2023/09/20 03:24:40;;;;;;;0.80;0.40;;;;;;;15.91;68.98;100454.53;4988858;28;20450;-66
2023/09/20 03:27:15;;;;;;;0.83;0.47;;;;;;;15.96;68.92;100454.63;4999639;28;20540;-66
2023/09/20 03:29:55;;;;;;;0.80;0.40;;;;;;;16.02;68.45;100450.88;4988356;28;20411;-66
2023/09/20 03:32:29;;;;;;;0.90;0.60;;;;;;;16.03;68.50;100451.69;4988245;28;20438;-67
2023/09/20 03:35:02;;;;;;;0.90;0.60;;;;;;;15.95;68.78;100455.69;4991968;28;20448;-67
2023/09/20 03:37:43;;;;;;;0.80;0.43;;;;;;;15.94;69.53;100453.19;5014782;28;20465;-66
2023/09/20 03:40:19;;;;;;;1.23;0.50;;;;;;;15.86;69.56;100465.34;4987601;28;20500;-67
2023/09/20 03:42:54;;;;;;;0.80;0.43;;;;;;;15.81;69.76;100462.53;4996343;28;20516;-67
2023/09/20 03:45:29;;;;;;;1.13;0.70;;;;;;;15.67;70.37;100460.38;4984959;28;20972;-67
2023/09/20 03:48:03;;;;;;;0.80;0.40;;;;;;;15.78;70.22;100454.84;4990714;28;20423;-66
2023/09/20 03:50:38;;;;;;;0.90;0.60;;;;;;;15.61;70.94;100446.66;4976310;28;20451;-65
2023/09/20 03:53:10;;;;;;;2.07;0.70;;;;;;;15.66;71.12;100456.81;4991929;28;20414;-64
2023/09/20 03:55:52;;;;;;;0.83;0.47;;;;;;;15.48;72.06;100448.84;4991278;28;20518;-65
2023/09/20 03:58:26;;;;;;;0.80;0.50;;;;;;;15.49;72.50;100445.03;4997726;28;20470;-66
2023/09/20 04:01:00;;;;;;;0.80;0.40;;;;;;;15.41;72.67;100448.13;4994287;28;20455;-67
2023/09/20 04:03:34;;;;;;;0.80;0.40;;;;;;;15.28;73.44;100453.91;4983335;28;20974;-66
2023/09/20 04:06:11;;;;;;;0.80;0.50;;;;;;;15.40;73.31;100451.94;4989396;28;20884;-66
2023/09/20 04:08:44;;;;;;;1.27;1.17;;;;;;;15.30;73.58;100452.56;4993547;28;20437;-66
2023/09/20 04:11:20;;;;;;;1.10;0.90;;;;;;;15.33;73.83;100451.28;4994658;28;20399;-66
2023/09/20 04:13:54;;;;;;;0.80;0.40;;;;;;;15.33;73.68;100454.00;5000061;28;20417;-66
2023/09/20 04:16:41;;;;;;;0.80;0.40;;;;;;;15.30;74.11;100449.03;4991534;28;20428;-66
2023/09/20 04:19:16;;;;;;;0.90;0.67;;;;;;;15.33;74.28;100452.09;4989979;28;20836;-66
2023/09/20 04:21:56;;;;;;;0.80;0.50;;;;;;;15.25;74.79;100454.41;4989714;28;20835;-66
2023/09/20 04:28:37;;;;;;;0.80;0.50;;;;;;;15.37;74.74;100458.72;4992147;28;20940;-66
2023/09/20 04:31:13;;;;;;;0.80;0.40;;;;;;;15.37;74.78;100455.16;5001023;28;20474;-65
2023/09/20 04:33:52;;;;;;;0.80;0.40;;;;;;;15.20;75.73;100453.19;4994531;28;20435;-65
2023/09/20 04:36:27;;;;;;;0.80;0.40;;;;;;;15.19;75.75;100462.47;4997305;28;20431;-68
2023/09/20 04:39:06;;;;;;;0.90;0.50;;;;;;;15.08;76.49;100455.16;4978478;28;20455;-66
2023/09/20 04:41:41;;;;;;;0.83;0.57;;;;;;;15.21;76.43;100467.66;4979904;28;20491;-67
2023/09/20 04:44:16;;;;;;;0.80;0.47;;;;;;;15.17;76.29;100471.94;5001738;28;20473;-66
2023/09/20 04:46:57;;;;;;;0.90;0.70;;;;;;;15.17;76.90;100472.78;5002112;28;20419;-67
2023/09/20 04:49:37;;;;;;;0.80;0.40;;;;;;;15.20;76.90;100471.47;4997882;28;20515;-67
2023/09/20 04:52:15;;;;;;;0.80;0.40;;;;;;;15.22;76.91;100486.50;5002177;28;20416;-67
2023/09/20 04:54:52;;;;;;;0.80;0.40;;;;;;;15.19;77.25;100481.56;4992542;28;20947;-67
2023/09/20 04:57:29;;;;;;;0.80;0.50;;;;;;;15.38;76.35;100489.53;4982271;28;20509;-66
2023/09/20 05:00:09;;;;;;;0.80;0.40;;;;;;;15.32;76.58;100493.22;4987316;28;20415;-67
2023/09/20 05:02:46;;;;;;;0.80;0.40;;;;;;;15.26;77.32;100495.03;4993844;28;20442;-67
2023/09/20 05:05:23;;;;;;;0.80;0.40;;;;;;;15.39;76.99;100489.31;4995280;28;20443;-65
2023/09/20 05:07:58;;;;;;;0.80;0.40;;;;;;;15.33;77.26;100487.53;5016291;28;20941;-66
2023/09/20 05:10:32;;;;;;;0.80;0.40;;;;;;;15.29;77.67;100491.00;4994464;28;20433;-67
2023/09/20 05:13:10;;;;;;;0.80;0.40;;;;;;;15.33;77.57;100497.63;4965978;28;20850;-67
2023/09/20 05:15:46;;;;;;;0.80;0.50;;;;;;;15.40;77.37;100484.66;4999848;28;20571;-66
2023/09/20 05:18:20;;;;;;;0.80;0.40;;;;;;;15.44;77.28;100491.28;4994862;28;20432;-66
2023/09/20 05:20:58;;;;;;;0.80;0.40;;;;;;;15.53;77.13;100489.88;5007248;28;20449;-66
2023/09/20 05:23:34;;;;;;;0.80;0.50;;;;;;;15.52;77.21;100493.66;4988820;28;20428;-67
2023/09/20 05:26:14;;;;;;;0.80;0.40;;;;;;;15.54;77.58;100494.25;5008788;28;20553;-67
2023/09/20 05:28:48;;;;;;;0.90;0.50;;;;;;;15.62;77.07;100488.38;4990575;28;20445;-66
2023/09/20 05:31:28;;;;;;;0.80;0.40;;;;;;;15.68;76.81;100492.03;4986992;28;20449;-66
2023/09/20 05:34:05;;;;;;;0.80;0.40;;;;;;;15.64;77.07;100499.88;4989705;28;20567;-67
2023/09/20 05:36:45;;;;;;;0.80;0.40;;;;;;;15.73;77.04;100503.03;4984448;28;20446;-67
2023/09/20 05:39:20;;;;;;;0.80;0.40;;;;;;;15.83;76.42;100498.56;5008230;28;20465;-66
2023/09/20 05:41:58;;;;;;;0.80;0.50;;;;;;;15.85;76.56;100499.16;4985685;28;20526;-67
2023/09/20 05:44:37;;;;;;;0.80;0.50;;;;;;;15.87;76.65;100507.94;4984104;28;21016;-67
2023/09/20 05:47:12;;;;;;;0.80;0.43;;;;;;;15.95;76.46;100515.72;4981237;28;20431;-67
2023/09/20 05:49:44;;;;;;;0.80;0.40;;;;;;;16.00;75.85;100518.53;4980867;28;20541;-65
2023/09/20 05:52:24;;;;;;;0.80;0.43;;;;;;;16.20;75.30;100506.31;4992653;28;20471;-66
2023/09/20 05:54:58;;;;;;;0.80;0.50;;;;;;;16.25;75.26;100500.94;4977138;28;20439;-66
2023/09/20 05:57:31;;;;;;;0.80;0.40;;;;;;;16.26;75.26;100505.31;4983963;28;20416;-66
2023/09/20 06:00:17;;;;;;;0.80;0.40;;;;;;;16.38;74.76;100504.13;5003617;28;20441;-67
2023/09/20 06:02:50;;;;;;;1.37;0.80;;;;;;;16.55;74.15;100515.06;4992016;28;20448;-66
2023/09/20 06:05:26;;;;;;;0.80;0.40;;;;;;;16.69;73.38;100516.38;5005194;28;20456;-65
2023/09/20 06:08:00;;;;;;;0.80;0.50;;;;;;;16.67;73.64;100517.69;5006366;28;20431;-65
2023/09/20 06:10:35;;;;;;;0.80;0.40;;;;;;;16.84;73.43;100522.06;4990676;28;20656;-66
2023/09/20 06:13:10;;;;;;;0.90;0.50;;;;;;;16.85;72.98;100520.13;4995677;28;20463;-66
2023/09/20 06:15:47;;;;;;;1.10;0.90;;;;;;;16.89;72.93;100513.13;5000484;28;20473;-65
2023/09/20 06:18:21;;;;;;;0.80;0.50;;;;;;;17.13;72.45;100521.91;5011778;28;20418;-65
2023/09/20 06:20:55;;;;;;;0.80;0.40;;;;;;;17.34;71.19;100519.16;5020289;28;20988;-66
2023/09/20 06:23:33;;;;;;;1.00;0.70;;;;;;;17.57;70.32;100523.50;4987326;28;20417;-66
2023/09/20 06:26:12;;;;;;;0.83;0.40;;;;;;;17.70;69.93;100514.94;4992640;28;20511;-66
2023/09/20 06:28:48;;;;;;;1.20;0.53;;;;;;;17.89;69.05;100520.84;4975498;28;20428;-65
2023/09/20 06:31:23;;;;;;;0.83;0.40;;;;;;;17.90;69.22;100521.69;5017056;28;20467;-67
2023/09/20 06:33:58;;;;;;;0.90;0.40;;;;;;;18.12;68.47;100522.44;4990852;28;20532;-66
2023/09/20 06:41:20;;;;;;;0.90;0.40;;;;;;;18.95;65.30;100529.06;4988443;28;20524;-67
2023/09/20 06:44:01;;;;;;;0.90;0.50;;;;;;;19.03;64.94;100531.31;4993225;28;20947;-67
2023/09/20 06:46:34;;;;;;;0.90;0.50;;;;;;;19.02;64.47;100535.16;5002673;28;20486;-66
2023/09/20 06:49:09;;;;;;;0.90;0.40;;;;;;;19.10;63.96;100531.91;4999889;28;20445;-65
2023/09/20 06:51:46;;;;;;;0.90;0.50;;;;;;;19.29;63.82;100535.81;5000477;28;20413;-68
2023/09/20 06:55:28;;;;;;;0.90;0.40;;;;;;;19.55;63.78;100535.94;4993968;28;20534;-67
2023/09/20 06:58:10;;;;;;;0.90;0.40;;;;;;;19.82;61.63;100540.13;5014949;28;20446;-66
2023/09/20 07:00:52;;;;;;;0.90;0.40;;;;;;;20.03;61.77;100541.00;4994247;28;20499;-66
2023/09/20 07:03:28;;;;;;;0.90;0.40;;;;;;;20.16;60.64;100534.94;4999126;28;20838;-67
2023/09/20 07:06:02;;;;;;;0.90;0.50;;;;;;;20.22;60.99;100550.34;4979623;28;20447;-66
2023/09/20 07:17:19;;;;;;;0.90;0.40;;;;;;;20.85;58.85;100544.56;4992689;28;20415;-66
2023/09/20 07:24:12;;;;;;;0.90;0.40;;;;;;;21.12;57.92;100553.28;4995418;28;20455;-67
2023/09/20 07:26:46;;;;;;;1.00;0.50;;;;;;;21.22;57.52;100556.03;4996081;28;20931;-65
2023/09/20 07:29:18;;;;;;;0.97;0.60;;;;;;;21.21;57.19;100546.94;4994703;28;20459;-66
2023/09/20 07:31:52;;;;;;;0.90;0.50;;;;;;;21.24;57.61;100557.41;4990914;28;20441;-66
2023/09/20 07:37:56;;;;;;;0.90;0.40;;;;;;;20.88;58.62;100544.81;4986857;28;21116;-66
2023/09/20 07:40:36;;;;;;;0.90;0.50;;;;;;;20.94;59.20;100549.19;4992303;28;20919;-68
2023/09/20 07:43:10;;;;;;;1.00;0.60;;;;;;;20.83;58.77;100545.66;5011037;28;20511;-67
2023/09/20 07:45:57;;;;;;;1.17;0.73;;;;;;;20.53;60.09;100555.84;5007944;28;20470;-66
2023/09/20 07:48:37;;;;;;;0.90;0.40;;;;;;;20.53;60.56;100553.09;4987007;28;20458;-66
2023/09/20 07:51:11;;;;;;;0.90;0.40;;;;;;;20.83;60.30;100550.31;5005890;28;20437;-67
2023/09/20 07:53:54;;;;;;;0.90;0.40;;;;;;;20.86;59.51;100558.03;4988216;28;20618;-66
2023/09/20 07:56:28;;;;;;;0.90;0.43;;;;;;;20.65;59.85;100559.16;4984475;28;20521;-67
2023/09/20 07:59:03;;;;;;;0.90;0.60;;;;;;;20.71;60.54;100563.56;4998951;28;20855;-67
2023/09/20 08:01:37;;;;;;;0.90;0.40;;;;;;;20.74;60.44;100557.50;4984118;28;20416;-67
2023/09/20 08:04:11;;;;;;;0.90;0.40;;;;;;;20.83;59.84;100572.31;4992105;28;20917;-66
2023/09/20 08:06:43;;;;;;;0.90;0.40;;;;;;;21.10;59.05;100561.00;4988256;28;20650;-67
2023/09/20 08:09:18;;;;;;;0.90;0.40;;;;;;;21.44;58.41;100566.69;4990204;28;20435;-67
2023/09/20 08:11:54;;;;;;;1.00;0.50;;;;;;;21.90;57.12;100570.00;4992685;28;20816;-67
2023/09/20 08:14:30;;;;;;;0.90;0.40;;;;;;;22.20;55.70;100580.03;5006820;28;20474;-67
2023/09/20 08:19:53;;;;;;;0.90;0.50;;;;;;;22.21;55.85;100579.75;4990625;28;20487;-67
2023/09/20 08:59:54;;;;;;;0.90;0.40;;;;;;;22.79;54.87;100564.13;5002009;28;20464;-67
2023/09/20 09:10:22;;;;;;;0.90;0.50;;;;;;;22.65;54.84;100565.88;4972917;28;20512;-66
2023/09/20 09:12:58;;;;;;;0.90;0.40;;;;;;;22.65;55.69;100560.38;5002230;28;20535;-67
2023/09/20 09:15:32;;;;;;;0.90;0.40;;;;;;;22.45;55.72;100555.84;4987694;28;21147;-67
2023/09/20 09:18:06;;;;;;;1.20;0.60;;;;;;;22.48;56.10;100557.19;4992531;28;20463;-66
2023/09/20 09:20:42;;;;;;;0.90;0.50;;;;;;;22.38;56.06;100565.56;4981859;28;20555;-66
2023/09/20 09:23:32;;;;;;;0.90;0.40;;;;;;;22.13;56.60;100558.31;4993423;28;20440;-67
2023/09/20 09:34:19;;;;;;;0.90;0.40;;;;;;;21.21;59.87;100546.94;4977409;28;20413;-66
2023/09/20 09:41:08;;;;;;;0.90;0.40;;;;;;;21.18;60.10;100561.28;4989235;28;20455;-67
2023/09/20 09:43:43;;;;;;;0.90;0.40;;;;;;;21.14;60.16;100551.09;5001252;28;20462;-63
2023/09/20 09:46:14;;;;;;;0.90;0.40;;;;;;;21.32;60.13;100553.22;4993513;28;20427;-66
2023/09/20 09:48:46;;;;;;;0.90;0.50;;;;;;;21.36;59.81;100551.56;4987052;28;20441;-66
2023/09/20 09:51:22;;;;;;;0.90;0.40;;;;;;;21.35;59.97;100551.88;4988616;28;20487;-67
2023/09/20 09:53:57;;;;;;;0.90;0.40;;;;;;;21.35;59.75;100557.38;5002299;28;20802;-66
2023/09/20 09:56:32;;;;;;;0.90;0.50;;;;;;;21.42;59.57;100552.38;4994744;28;20441;-66
2023/09/20 09:59:05;;;;;;;0.90;0.40;;;;;;;21.57;59.54;100546.78;4978624;28;20819;-65
2023/09/20 10:01:39;;;;;;;0.90;0.50;;;;;;;21.79;58.57;100555.47;4990999;28;20469;-66
2023/09/20 10:04:12;;;;;;;0.90;0.40;;;;;;;21.98;58.51;100548.22;4993271;28;20476;-66
2023/09/20 10:07:03;;;;;;;0.90;0.40;;;;;;;22.23;57.18;100544.44;4990858;28;20443;-66
2023/09/20 10:14:10;;;;;;;0.90;0.40;;;;;;;22.52;55.78;100550.00;4984060;28;20519;-66
2023/09/20 10:16:45;;;;;;;0.90;0.40;;;;;;;22.48;56.50;100549.75;4985480;28;20441;-66
2023/09/20 10:19:20;;;;;;;1.00;0.60;;;;;;;22.49;56.20;100539.56;5004842;28;20502;-65
2023/09/20 10:22:11;;;;;;;1.53;0.77;;;;;;;22.46;56.29;100531.88;4989691;28;20565;-65
2023/09/20 10:24:53;;;;;;;0.90;0.50;;;;;;;22.55;56.72;100532.88;4995232;28;20622;-66
2023/09/20 10:27:34;;;;;;;1.00;0.50;;;;;;;22.93;55.81;100525.63;4989928;28;20485;-68
2023/09/20 10:30:12;;;;;;;0.90;0.40;;;;;;;22.95;55.09;100532.47;5003864;28;20462;-66
2023/09/20 10:36:33;;;;;;;0.90;0.50;;;;;;;22.87;54.21;100524.84;4983799;28;20464;-66
2023/09/20 10:39:25;;;;;;;1.10;0.50;;;;;;;22.99;54.61;100537.44;4972618;28;20455;-69
2023/09/20 10:42:14;;;;;;;0.90;0.40;;;;;;;23.07;54.07;100528.50;4988793;28;20457;-68
2023/09/20 10:44:47;;;;;;;0.90;0.40;;;;;;;23.16;54.45;100518.44;4996494;28;20531;-67
2023/09/20 10:47:23;;;;;;;3.20;0.73;;;;;;;23.15;54.06;100527.84;5008971;28;20459;-67
2023/09/20 10:49:56;;;;;;;0.90;0.50;;;;;;;23.10;54.50;100523.22;4990282;28;20505;-66
2023/09/20 10:53:00;;;;;;;1.13;0.70;;;;;;;22.81;54.46;100509.47;5011097;28;20430;-65
2023/09/20 10:55:42;;;;;;;0.90;0.50;;;;;;;22.75;55.01;100505.09;4986186;28;20454;-66
2023/09/20 10:58:18;;;;;;;0.90;0.47;;;;;;;22.65;55.66;100509.91;5011277;28;20789;-66
2023/09/20 11:00:52;;;;;;;1.47;0.50;;;;;;;22.32;55.87;100506.06;4986838;28;21387;-67
2023/09/20 11:03:26;;;;;;;0.90;0.40;;;;;;;22.36;56.15;100502.47;4996018;28;20429;-67
2023/09/20 11:06:04;;;;;;;0.90;0.40;;;;;;;22.45;56.31;100499.91;4982663;28;20453;-67
2023/09/20 11:16:48;;;;;;;0.90;0.40;;;;;;;22.72;55.42;100480.06;4978433;28;20537;-66
2023/09/20 11:19:23;;;;;;;0.97;0.60;;;;;;;23.05;54.89;100486.56;4987022;28;20445;-67
2023/09/20 11:21:59;;;;;;;1.00;0.50;;;;;;;23.08;54.71;100481.31;4986365;28;20473;-66
2023/09/20 11:24:38;;;;;;;1.27;0.50;;;;;;;23.41;54.12;100482.25;4991254;28;20469;-67
2023/09/20 11:27:10;;;;;;;0.90;0.50;;;;;;;23.51;53.26;100476.63;4990302;28;20493;-66
2023/09/20 11:29:45;;;;;;;0.90;0.40;;;;;;;23.72;53.05;100475.19;5001577;28;20524;-66
2023/09/20 11:32:22;;;;;;;1.00;0.60;;;;;;;23.76;51.89;100487.28;4996307;28;20536;-66
2023/09/20 11:35:38;;;;;;;0.90;0.50;;;;;;;23.49;52.98;100478.84;4979527;28;20583;-68
2023/09/20 11:38:15;;;;;;;0.90;0.40;;;;;;;23.44;52.91;100494.63;4989436;28;20437;-68
2023/09/20 11:40:59;;;;;;;0.90;0.40;;;;;;;23.28;53.46;100481.03;4998276;28;20450;-73
2023/09/20 11:43:35;;;;;;;0.90;0.50;;;;;;;23.42;53.12;100486.66;4990387;28;20453;-67
2023/09/20 11:46:13;;;;;;;0.90;0.40;;;;;;;23.70;52.38;100499.53;4991709;28;20465;-67
2023/09/20 11:48:48;;;;;;;5.53;0.50;;;;;;;23.94;51.80;100493.09;4981712;28;20441;-66
2023/09/20 11:51:22;;;;;;;0.90;0.40;;;;;;;24.22;51.23;100497.63;4993346;28;20438;-67
2023/09/20 11:53:53;;;;;;;1.13;0.70;;;;;;;24.44;50.88;100500.59;5004564;28;20451;-67
2023/09/20 11:56:29;;;;;;;1.10;0.50;;;;;;;24.59;50.98;100497.50;4997534;28;20446;-65
2023/09/20 11:59:02;;;;;;;1.20;0.83;;;;;;;24.51;50.00;100498.22;4991534;28;20468;-66
2023/09/20 12:01:40;;;;;;;0.90;0.40;;;;;;;24.52;50.77;100494.34;4993665;28;21063;-65
2023/09/20 12:09:00;;;;;;;0.90;0.40;;;;;;;24.69;50.46;100479.91;4982004;28;20536;-66
2023/09/20 12:15:43;;;;;;;1.27;0.50;;;;;;;24.84;49.59;100467.72;4978736;28;20484;-66
2023/09/20 12:18:17;;;;;;;1.10;0.50;;;;;;;24.87;49.30;100467.97;4992489;28;20445;-66
2023/09/20 12:20:49;;;;;;;1.10;0.50;;;;;;;24.81;49.71;100462.81;5007539;28;20478;-66
2023/09/20 12:23:22;;;;;;;0.90;0.50;;;;;;;24.73;49.94;100463.53;4996407;28;20504;-66
2023/09/20 12:25:58;;;;;;;0.90;0.40;;;;;;;24.75;49.13;100458.50;4989819;28;21015;-67
2023/09/20 12:28:31;;;;;;;0.90;0.40;;;;;;;24.82;49.41;100458.91;4984483;28;20450;-66
2023/09/20 12:31:03;;;;;;;0.90;0.40;;;;;;;25.08;48.76;100457.28;5000537;28;20801;-66
2023/09/20 12:33:40;;;;;;;1.50;0.70;;;;;;;25.19;48.34;100442.09;4978367;28;20501;-67
2023/09/20 12:36:13;;;;;;;1.00;0.50;;;;;;;25.29;48.50;100446.59;4987963;28;20485;-66
2023/09/20 12:38:48;;;;;;;0.90;0.40;;;;;;;25.32;48.30;100441.25;4986444;28;21237;-67
2023/09/20 12:41:20;;;;;;;0.90;0.40;;;;;;;25.23;48.34;100439.53;4987552;28;20466;-66
2023/09/20 12:43:52;;;;;;;0.90;0.40;;;;;;;25.42;47.24;100441.03;4991753;28;20830;-67
2023/09/20 12:46:26;;;;;;;0.90;0.40;;;;;;;25.61;46.44;100437.31;4990399;28;20887;-66
2023/09/20 12:48:59;;;;;;;1.10;0.60;;;;;;;25.78;46.24;100437.44;4991270;28;20474;-66
2023/09/20 12:51:30;;;;;;;1.00;0.50;;;;;;;26.01;45.93;100436.31;4989079;28;20505;-65
2023/09/20 12:54:05;;;;;;;1.43;0.70;;;;;;;25.98;45.03;100441.69;4989981;28;20538;-66
2023/09/20 12:56:38;;;;;;;0.90;0.50;;;;;;;26.02;44.89;100437.97;4997385;28;20459;-66
2023/09/20 12:59:11;;;;;;;1.30;0.73;;;;;;;25.94;45.37;100424.88;5005022;28;20481;-67
2023/09/20 13:01:45;;;;;;;0.90;0.40;;;;;;;25.94;45.61;100433.19;4990448;28;20495;-67
2023/09/20 13:04:24;;;;;;;0.90;0.40;;;;;;;26.04;45.57;100424.59;4989623;28;20619;-66
2023/09/20 13:06:58;;;;;;;0.90;0.40;;;;;;;25.98;45.49;100425.88;4997668;28;20444;-66
2023/09/20 13:09:30;;;;;;;0.90;0.40;;;;;;;25.94;45.88;100425.69;4988098;28;20504;-66
2023/09/20 13:12:01;;;;;;;0.90;0.40;;;;;;;26.12;45.93;100421.06;4993341;28;20405;-66
2023/09/20 13:14:33;;;;;;;0.90;0.40;;;;;;;26.16;45.58;100421.25;4987157;28;20480;-66
2023/09/20 13:17:04;;;;;;;0.90;0.40;;;;;;;25.71;45.75;100423.19;4987201;28;20442;-65
2023/09/20 13:19:36;;;;;;;0.90;0.40;;;;;;;25.40;46.84;100410.06;4990590;28;20549;-67
2023/09/20 13:22:08;;;;;;;0.90;0.50;;;;;;;25.32;47.01;100410.78;4988761;28;20474;-66
2023/09/20 13:24:40;;;;;;;1.00;0.40;;;;;;;25.26;47.26;100414.81;4992918;28;20473;-67
2023/09/20 13:27:14;;;;;;;1.40;0.60;;;;;;;25.23;47.25;100414.59;4992124;28;20804;-67
2023/09/20 13:29:46;;;;;;;0.90;0.50;;;;;;;25.27;47.75;100410.91;5005380;28;20449;-67
2023/09/20 13:32:18;;;;;;;0.90;0.50;;;;;;;25.49;46.39;100416.50;4990415;28;20438;-66
2023/09/20 13:34:53;;;;;;;0.90;0.40;;;;;;;25.60;45.28;100419.06;4988084;28;20556;-66
2023/09/20 13:37:24;;;;;;;0.90;0.40;;;;;;;25.79;45.16;100405.84;4988973;28;20444;-67
2023/09/20 13:39:56;;;;;;;0.90;0.50;;;;;;;26.07;45.21;100412.88;5006007;28;20416;-66
2023/09/20 13:42:28;;;;;;;1.20;0.70;;;;;;;26.01;45.07;100407.75;4985846;28;21023;-66
2023/09/20 13:45:04;;;;;;;0.90;0.50;;;;;;;26.23;45.23;100410.56;4989315;28;20552;-66
2023/09/20 13:47:35;;;;;;;0.90;0.40;;;;;;;26.18;44.97;100403.16;4986118;28;20440;-66
2023/09/20 13:50:12;;;;;;;1.00;0.57;;;;;;;26.22;44.94;100393.09;4995857;28;20875;-66
2023/09/20 13:52:45;;;;;;;0.90;0.40;;;;;;;26.02;44.83;100404.69;4989138;28;20437;-67
2023/09/20 13:55:17;;;;;;;0.90;0.40;;;;;;;25.87;45.45;100400.34;4987611;28;20889;-66
2023/09/20 13:58:01;;;;;;;1.00;0.70;;;;;;;25.69;45.77;100393.06;4984207;28;20463;-66
2023/09/20 14:00:32;;;;;;;1.37;0.53;;;;;;;25.48;46.49;100394.63;4996538;28;20528;-66
2023/09/20 14:03:05;;;;;;;1.00;0.50;;;;;;;25.15;46.80;100391.25;5001055;28;20498;-67